General Aviation Weather

Text Reports

Enter one or more of the following location identifiers separated by a space:

Zip Code, Four-Character ICAO or Three-Character IATA airport codes.

METAR - Aviation Routine Weather Report
KAUG - Augusta, Maine
Updated at 4:53 PM GMT on January 23, 2017 (11:53 AM EST):
METAR KAUG 231653Z AUTO 07005KT 10SM OVC023 M03/M08 A3015 RMK AO2 SLP216 T10281083
TAF - Terminal Area Forecast
KAUG - Augusta, Maine
Updated at 4:53 PM GMT on January 23, 2017 (11:53 AM EST):
No TAF is currently available for this location.
Decoded:
No decoded TAF is available.
PIREP - Pilot Weather Report
KAUG - Augusta, Maine
Updated at 4:53 PM GMT on January 23, 2017 (11:53 AM EST):
No PIREP is currently available for this location.
AIRMET - Airmens Meteorological Information
KAUG - Augusta, Maine
Updated at 4:53 PM GMT on January 23, 2017 (11:53 AM EST):
No AIRMET is currently available for this location.
SIGMET - Significant Meteorological Information
KAUG - Augusta, Maine
Updated at 4:53 PM GMT on January 23, 2017 (11:53 AM EST):
No SIGMET is currently available for this location.
NOTAM - Notice to Airmen
KAUG - Augusta, Maine
Updated at 4:53 PM GMT on January 23, 2017 (11:53 AM EST):
No NOTAM is currently available for this location.
Forecast Area
KAUG - Augusta, Maine
Updated at 4:53 PM GMT on January 23, 2017 (11:53 AM EST):
No NOTAM is currently available for this location.
Aviation Weather Maps